Time;durP1;ratioP1;P1;durP2;ratioP2;P2;SDS_P1;SDS_P2;PMS_P1;PMS_P2;Temp;Humidity;BMP_temperature;BMP_pressure;BME280_temperature;BME280_humidity;BME280_pressure;Samples;Min_cycle;Max_cycle;Signal;HPM_P1;HPM_P2
2023/12/04 00:00:25;;;;;;;5.97;2.33;;;;;;;13.25;40.06;96831.63;5083762;28;20020;-26
2023/12/04 00:02:50;;;;;;;6.13;2.40;;;;;;;13.07;40.85;96826.69;5076634;28;20031;-26
2023/12/04 00:05:15;;;;;;;4.45;2.30;;;;;;;13.19;40.48;96817.81;5086750;28;20023;-26
2023/12/04 00:07:41;;;;;;;4.15;2.03;;;;;;;13.14;39.94;96831.94;5079560;28;20024;-26
2023/12/04 00:10:08;;;;;;;5.13;2.17;;;;;;;13.12;40.21;96825.38;5084392;28;20027;-27
2023/12/04 00:12:33;;;;;;;2.65;1.77;;;;;;;13.13;40.27;96827.66;5081237;28;20048;-26
2023/12/04 00:14:59;;;;;;;4.28;2.00;;;;;;;13.05;40.41;96831.03;5082912;28;20491;-26
2023/12/04 00:17:24;;;;;;;6.25;1.88;;;;;;;12.87;40.53;96824.13;5083744;28;20024;-26
2023/12/04 00:19:50;;;;;;;4.72;1.80;;;;;;;13.13;39.97;96829.63;5082895;28;20032;-27
2023/12/04 00:22:16;;;;;;;3.58;1.70;;;;;;;12.93;40.59;96827.09;5083901;28;20038;-27
2023/12/04 00:24:41;;;;;;;3.85;1.80;;;;;;;13.02;40.30;96829.94;5083182;28;20020;-26
2023/12/04 00:27:07;;;;;;;2.78;1.70;;;;;;;13.11;39.98;96832.78;5083054;28;20169;-26
2023/12/04 00:29:32;;;;;;;2.88;1.80;;;;;;;12.78;40.49;96831.38;5085054;28;20024;-27
2023/12/04 00:31:57;;;;;;;3.70;2.28;;;;;;;12.95;40.35;96830.91;5086035;28;20031;-26
2023/12/04 00:34:23;;;;;;;4.05;2.08;;;;;;;13.11;40.05;96834.72;5092194;28;20110;-27
2023/12/04 00:36:48;;;;;;;6.03;2.35;;;;;;;12.94;40.51;96834.06;5075779;28;20020;-27
2023/12/04 00:39:14;;;;;;;6.90;2.75;;;;;;;12.93;40.52;96827.09;5089750;28;20024;-26
2023/12/04 00:41:39;;;;;;;5.93;2.72;;;;;;;13.00;40.25;96829.59;5077420;28;20107;-27
2023/12/04 00:44:05;;;;;;;3.95;2.22;;;;;;;13.01;40.44;96833.06;5088282;28;20024;-27
2023/12/04 00:46:30;;;;;;;5.32;2.50;;;;;;;13.07;40.17;96832.13;5082503;28;20016;-28
2023/12/04 00:48:55;;;;;;;6.72;2.92;;;;;;;13.12;39.97;96826.13;5082493;28;20046;-27
2023/12/04 00:51:21;;;;;;;4.20;2.00;;;;;;;13.07;40.35;96826.69;5082101;28;20012;-27
2023/12/04 00:53:46;;;;;;;2.65;1.73;;;;;;;13.04;40.61;96821.34;5083611;28;20111;-27
2023/12/04 00:56:12;;;;;;;3.33;1.85;;;;;;;12.70;40.80;96830.06;5082429;28;20017;-28
2023/12/04 00:58:37;;;;;;;3.25;1.40;;;;;;;12.92;40.38;96831.75;5081986;28;20507;-26
2023/12/04 01:01:03;;;;;;;3.30;1.70;;;;;;;13.09;40.00;96828.97;5077443;28;20515;-27
2023/12/04 01:03:32;;;;;;;2.65;1.70;;;;;;;13.06;39.77;96841.50;5087514;28;20454;-27
2023/12/04 01:05:58;;;;;;;4.97;1.88;;;;;;;12.95;40.20;96833.63;5081696;28;20024;-28
2023/12/04 01:08:23;;;;;;;3.97;2.00;;;;;;;13.09;40.09;96834.44;5078981;28;20073;-26
2023/12/04 01:10:49;;;;;;;3.88;1.70;;;;;;;12.81;40.57;96839.47;5085327;28;20043;-28
2023/12/04 01:13:14;;;;;;;3.75;1.60;;;;;;;12.85;40.38;96844.81;5082437;28;20039;-27
2023/12/04 01:15:39;;;;;;;2.85;1.52;;;;;;;12.97;40.23;96849.53;5081874;28;20069;-27
2023/12/04 01:18:05;;;;;;;2.47;1.50;;;;;;;12.97;40.66;96849.53;5082136;28;20023;-26
2023/12/04 01:20:33;;;;;;;4.90;1.48;;;;;;;12.94;40.27;96851.16;5075085;28;20099;-27
2023/12/04 01:22:58;;;;;;;4.63;1.67;;;;;;;12.77;40.93;96846.19;5089180;28;20024;-28
2023/12/04 01:25:24;;;;;;;4.20;1.67;;;;;;;12.97;40.31;96846.81;5083810;28;20031;-27
2023/12/04 01:27:49;;;;;;;2.95;1.45;;;;;;;12.90;40.64;96844.28;5085379;28;20028;-27
2023/12/04 01:30:15;;;;;;;5.63;1.77;;;;;;;12.78;41.19;96836.81;5076634;28;20016;-26
2023/12/04 01:32:40;;;;;;;5.25;1.83;;;;;;;12.84;40.51;96837.84;5082036;28;20016;-27
2023/12/04 01:35:06;;;;;;;2.63;1.10;;;;;;;12.90;40.95;96841.53;5080459;28;20449;-27
2023/12/04 01:37:32;;;;;;;3.33;1.30;;;;;;;12.79;40.71;96841.09;5082600;28;20496;-26
2023/12/04 01:39:57;;;;;;;3.13;1.50;;;;;;;12.93;40.52;96836.00;5078972;28;20024;-26
2023/12/04 01:42:23;;;;;;;4.78;1.80;;;;;;;12.90;40.54;96839.59;5084105;28;20020;-26
2023/12/04 01:44:48;;;;;;;2.50;1.30;;;;;;;12.83;40.69;96828.16;5089009;28;20492;-27
2023/12/04 01:47:14;;;;;;;3.58;1.35;;;;;;;13.02;40.54;96824.47;5079991;28;20016;-27
2023/12/04 01:49:40;;;;;;;3.10;1.48;;;;;;;12.83;40.51;96819.97;5076466;28;20059;-26
2023/12/04 01:52:06;;;;;;;2.38;1.77;;;;;;;13.06;40.46;96827.88;5080779;28;20027;-26
2023/12/04 01:54:32;;;;;;;3.47;1.90;;;;;;;12.92;40.46;96820.09;5081400;28;20386;-27
2023/12/04 01:56:58;;;;;;;2.10;1.35;;;;;;;12.97;40.72;96822.31;5081385;28;20016;-27
2023/12/04 01:59:25;;;;;;;2.72;1.35;;;;;;;12.97;40.17;96818.81;5080973;28;20085;-28
2023/12/04 02:01:52;;;;;;;3.25;1.30;;;;;;;13.06;40.04;96814.25;5081070;28;20034;-27
2023/12/04 02:04:18;;;;;;;3.17;1.30;;;;;;;12.89;40.26;96812.81;5080841;28;20028;-27
2023/12/04 02:06:43;;;;;;;2.70;1.23;;;;;;;13.08;40.23;96813.84;5081174;28;20031;-26
2023/12/04 02:09:12;;;;;;;3.83;1.27;;;;;;;12.80;40.80;96813.44;5083911;28;20073;-27
2023/12/04 02:11:39;;;;;;;3.88;1.60;;;;;;;12.85;40.26;96806.72;5084360;28;20016;-26
2023/12/04 02:14:05;;;;;;;3.80;1.33;;;;;;;12.94;40.30;96788.53;5082271;28;20024;-27
2023/12/04 02:16:36;;;;;;;1.88;1.33;;;;;;;12.79;40.46;96790.13;5077055;28;20027;-27
2023/12/04 02:19:01;;;;;;;2.80;1.25;;;;;;;12.77;40.36;96792.53;5083295;28;20417;-27
2023/12/04 02:21:27;;;;;;;2.88;1.35;;;;;;;12.74;40.59;96798.06;5088521;28;20077;-27
2023/12/04 02:23:52;;;;;;;2.42;1.30;;;;;;;12.75;41.07;96794.13;5079600;28;20030;-27
2023/12/04 02:26:23;;;;;;;3.50;1.50;;;;;;;12.92;40.24;96790.94;5063952;28;20055;-26
2023/12/04 02:28:55;;;;;;;2.38;1.20;;;;;;;12.83;40.51;96792.75;5080797;28;20024;-26
2023/12/04 02:31:23;;;;;;;2.80;1.45;;;;;;;12.80;40.59;96801.78;5080933;28;20107;-27
2023/12/04 02:33:52;;;;;;;2.60;1.33;;;;;;;12.82;40.60;96793.97;5080316;28;20362;-27
2023/12/04 02:36:19;;;;;;;3.35;1.60;;;;;;;12.62;40.95;96798.78;5080755;28;20060;-26
2023/12/04 02:38:45;;;;;;;1.60;1.20;;;;;;;12.86;40.54;96787.19;5073399;28;20027;-26
2023/12/04 02:41:11;;;;;;;2.72;1.30;;;;;;;12.79;40.46;96789.38;5081031;28;20021;-26
2023/12/04 02:43:36;;;;;;;4.50;1.23;;;;;;;12.81;40.90;96784.25;5080465;28;20024;-26
2023/12/04 02:46:02;;;;;;;2.17;1.20;;;;;;;12.62;40.88;96787.88;5080304;28;20036;-27
2023/12/04 02:48:27;;;;;;;2.55;1.27;;;;;;;12.88;40.34;96782.09;5080005;28;20044;-26
2023/12/04 02:50:53;;;;;;;2.67;1.48;;;;;;;12.61;41.01;96780.94;5080738;28;20100;-27
2023/12/04 02:53:18;;;;;;;4.57;1.60;;;;;;;12.79;40.59;96784.69;5080270;28;20525;-27
2023/12/04 02:55:44;;;;;;;3.42;1.30;;;;;;;12.80;40.70;96785.47;5080491;28;20491;-27
2023/12/04 02:58:09;;;;;;;6.55;1.50;;;;;;;12.76;40.54;96784.78;5080013;28;20021;-27
2023/12/04 03:00:35;;;;;;;3.35;1.30;;;;;;;12.70;40.70;96787.28;5080425;28;20013;-27
2023/12/04 03:03:00;;;;;;;3.25;1.40;;;;;;;12.67;40.69;96785.41;5087452;28;20021;-27
2023/12/04 03:05:25;;;;;;;3.30;1.25;;;;;;;12.81;40.50;96786.97;5077859;28;20024;-27
2023/12/04 03:07:51;;;;;;;1.85;1.27;;;;;;;12.73;40.45;96781.00;5075672;28;20020;-28
2023/12/04 03:10:16;;;;;;;1.70;1.30;;;;;;;12.50;41.08;96779.25;5080985;28;20046;-27
2023/12/04 03:12:42;;;;;;;1.92;1.00;;;;;;;12.67;41.00;96779.22;5086410;28;20055;-27
2023/12/04 03:15:07;;;;;;;4.47;1.23;;;;;;;12.63;41.11;96771.13;5080749;28;20373;-27
2023/12/04 03:17:33;;;;;;;3.05;1.40;;;;;;;12.67;40.98;96765.59;5079969;28;20478;-26
2023/12/04 03:19:58;;;;;;;2.95;1.20;;;;;;;12.59;40.81;96765.81;5080076;28;20024;-26
2023/12/04 03:22:24;;;;;;;1.80;1.08;;;;;;;12.56;41.36;96760.47;5082568;28;20027;-27
2023/12/04 03:24:49;;;;;;;2.33;1.33;;;;;;;12.70;40.78;96767.47;5083934;28;20027;-27
2023/12/04 03:27:15;;;;;;;2.35;1.30;;;;;;;12.63;40.91;96775.81;5082405;28;20027;-27
2023/12/04 03:29:40;;;;;;;1.92;1.00;;;;;;;12.62;40.46;96766.88;5087148;28;20408;-27
2023/12/04 03:32:06;;;;;;;3.92;1.30;;;;;;;12.74;40.33;96768.13;5087791;28;20024;-27
2023/12/04 03:34:31;;;;;;;4.15;1.30;;;;;;;12.53;41.36;96772.97;5085823;28;20035;-27
2023/12/04 03:36:57;;;;;;;2.65;1.30;;;;;;;12.57;40.74;96779.09;5089655;28;20385;-27
2023/12/04 03:39:22;;;;;;;2.65;1.27;;;;;;;12.61;41.25;96780.94;5084393;28;20025;-27
2023/12/04 03:41:48;;;;;;;3.55;1.45;;;;;;;12.61;41.06;96773.53;5065866;28;20013;-27
2023/12/04 03:44:13;;;;;;;2.03;1.20;;;;;;;12.65;40.98;96774.19;5076974;28;20103;-27
2023/12/04 03:46:38;;;;;;;2.33;1.20;;;;;;;12.53;40.89;96764.03;5091365;28;20016;-27
2023/12/04 03:49:05;;;;;;;5.97;2.20;;;;;;;12.50;40.80;96770.34;5083823;28;20539;-27
2023/12/04 03:51:30;;;;;;;3.08;1.20;;;;;;;12.49;40.26;96766.84;5084082;28;20108;-27
2023/12/04 03:53:56;;;;;;;3.53;1.38;;;;;;;12.59;40.69;96759.63;5086154;28;20100;-27
2023/12/04 03:56:21;;;;;;;4.13;1.77;;;;;;;12.42;41.02;96764.34;5081497;28;20021;-27
2023/12/04 03:58:47;;;;;;;2.20;1.20;;;;;;;12.55;41.24;96765.16;5065521;28;20037;-27
2023/12/04 04:01:12;;;;;;;4.90;1.85;;;;;;;12.43;41.71;96773.25;5083419;28;20024;-27
2023/12/04 04:03:38;;;;;;;3.83;1.17;;;;;;;12.62;40.94;96774.28;5082783;28;20406;-27
2023/12/04 04:06:04;;;;;;;3.20;1.55;;;;;;;12.53;41.23;96775.69;5083979;28;20115;-27
2023/12/04 04:08:29;;;;;;;4.22;1.50;;;;;;;12.42;41.38;96786.09;5062925;28;20062;-27
2023/12/04 04:10:55;;;;;;;6.50;1.67;;;;;;;12.46;41.38;96775.91;5085767;28;20086;-27
2023/12/04 04:13:20;;;;;;;2.00;1.30;;;;;;;12.42;41.29;96780.66;5079274;28;20028;-28
2023/12/04 04:15:46;;;;;;;3.63;1.63;;;;;;;12.50;41.36;96784.69;5080339;28;20115;-27
2023/12/04 04:18:11;;;;;;;3.08;1.40;;;;;;;12.64;41.10;96780.84;5090587;28;20098;-28
2023/12/04 04:20:37;;;;;;;2.90;1.33;;;;;;;12.67;40.92;96773.78;5087758;28;20062;-27
2023/12/04 04:23:02;;;;;;;2.30;1.20;;;;;;;12.62;41.41;96790.63;5078476;28;20032;-26
2023/12/04 04:25:28;;;;;;;2.63;1.30;;;;;;;12.56;41.10;96783.00;5083215;28;20016;-26
2023/12/04 04:27:53;;;;;;;2.63;1.10;;;;;;;12.65;40.80;96795.19;5083257;28;20024;-27
2023/12/04 04:30:18;;;;;;;4.03;1.40;;;;;;;12.58;41.07;96796.16;5083720;28;20443;-26
2023/12/04 04:32:44;;;;;;;3.45;1.30;;;;;;;12.69;41.22;96798.59;5086480;28;20381;-27
2023/12/04 04:35:09;;;;;;;5.38;1.50;;;;;;;12.65;41.36;96795.97;5086103;28;20393;-27
2023/12/04 04:37:35;;;;;;;4.43;1.40;;;;;;;12.62;41.33;96802.25;5084662;28;20029;-27
2023/12/04 04:40:01;;;;;;;2.95;1.58;;;;;;;12.70;41.06;96794.69;5067554;28;20040;-28
2023/12/04 04:42:26;;;;;;;3.33;1.73;;;;;;;12.71;41.17;96796.22;5077995;28;20020;-26
2023/12/04 04:44:52;;;;;;;2.97;1.75;;;;;;;12.73;41.13;96802.75;5090538;28;20016;-27
2023/12/04 04:47:17;;;;;;;3.30;1.40;;;;;;;12.68;41.03;96788.91;5081664;28;20016;-26
2023/12/04 04:49:42;;;;;;;2.58;1.30;;;;;;;12.76;40.96;96788.25;5083860;28;20446;-27
2023/12/04 04:52:08;;;;;;;3.00;1.10;;;;;;;12.63;41.22;96792.91;5082657;28;20458;-27
2023/12/04 04:54:33;;;;;;;3.38;1.30;;;;;;;12.68;41.29;96794.34;5082545;28;20405;-27
2023/12/04 04:56:59;;;;;;;2.88;1.48;;;;;;;12.68;41.26;96786.19;5083102;28;20039;-27
2023/12/04 04:59:24;;;;;;;4.22;1.90;;;;;;;12.55;41.67;96792.34;5081249;28;20028;-27
2023/12/04 05:01:50;;;;;;;4.50;1.60;;;;;;;12.67;41.29;96815.34;5076877;28;20020;-26
2023/12/04 05:04:15;;;;;;;2.95;1.23;;;;;;;12.72;41.04;96803.19;5082565;28;20107;-26
2023/12/04 05:06:41;;;;;;;2.92;1.40;;;;;;;12.57;41.38;96800.09;5082166;28;20108;-27
2023/12/04 05:09:06;;;;;;;3.90;1.38;;;;;;;12.63;41.18;96797.59;5082501;28;20500;-27
2023/12/04 05:11:32;;;;;;;3.67;1.45;;;;;;;12.68;40.87;96797.06;5082066;28;20590;-26
2023/12/04 05:13:57;;;;;;;3.22;1.60;;;;;;;12.81;40.83;96800.59;5082572;28;20024;-27
2023/12/04 05:16:23;;;;;;;4.43;1.50;;;;;;;12.80;41.03;96801.78;5077632;28;20016;-26
2023/12/04 05:18:49;;;;;;;4.75;1.50;;;;;;;12.74;41.01;96803.50;5085670;28;20026;-26
2023/12/04 05:21:14;;;;;;;2.95;1.50;;;;;;;12.58;41.81;96807.06;5077077;28;20386;-26
2023/12/04 05:23:40;;;;;;;4.75;1.50;;;;;;;12.80;40.95;96801.78;5085359;28;20016;-27
2023/12/04 05:26:06;;;;;;;5.53;1.35;;;;;;;12.65;41.11;96806.09;5084773;28;20536;-27
2023/12/04 05:28:32;;;;;;;3.65;1.27;;;;;;;12.73;41.14;96810.16;5089536;28;20056;-26
2023/12/04 05:30:58;;;;;;;2.50;1.50;;;;;;;12.79;40.85;96805.69;5082201;28;20110;-27
2023/12/04 05:33:23;;;;;;;4.70;1.70;;;;;;;12.62;41.28;96798.78;5081930;28;20143;-27
2023/12/04 05:35:51;;;;;;;1.95;1.30;;;;;;;12.63;41.48;96803.78;5056527;28;20089;-27
2023/12/04 05:38:16;;;;;;;3.47;1.20;;;;;;;12.70;41.43;96808.28;5081239;28;20119;-27
2023/12/04 05:40:42;;;;;;;3.30;1.10;;;;;;;12.58;42.04;96807.06;5084377;28;20024;-27
2023/12/04 05:43:07;;;;;;;6.43;1.40;;;;;;;12.67;41.82;96809.16;5079276;28;20082;-27
2023/12/04 05:45:33;;;;;;;3.38;1.30;;;;;;;12.59;41.39;96809.34;5081455;28;20445;-27
2023/12/04 05:47:58;;;;;;;2.35;1.20;;;;;;;12.53;41.72;96815.72;5078199;28;20047;-26
2023/12/04 05:50:24;;;;;;;3.50;1.55;;;;;;;12.54;42.00;96809.88;5085262;28;20070;-27
2023/12/04 05:52:50;;;;;;;4.88;1.60;;;;;;;12.52;41.86;96817.69;5083026;28;20031;-26
2023/12/04 05:55:15;;;;;;;3.63;1.33;;;;;;;12.74;41.41;96814.38;5084797;28;20526;-27
2023/12/04 05:57:41;;;;;;;3.58;1.50;;;;;;;12.58;41.39;96810.53;5076199;28;20036;-27
2023/12/04 06:00:12;;;;;;;2.25;1.40;;;;;;;12.69;41.57;96806.75;5081372;28;20058;-27
2023/12/04 06:02:41;;;;;;;2.67;1.50;;;;;;;12.57;41.71;96805.53;5088439;28;20016;-27
2023/12/04 06:05:07;;;;;;;3.92;1.65;;;;;;;12.47;42.24;96807.34;5083614;28;20020;-27
2023/12/04 06:07:33;;;;;;;4.25;2.30;;;;;;;12.46;41.87;96805.81;5078507;28;20077;-27
2023/12/04 06:09:59;;;;;;;8.57;2.30;;;;;;;12.49;41.93;96821.25;5081233;28;20028;-26
2023/12/04 06:12:24;;;;;;;11.27;3.00;;;;;;;12.53;41.64;96819.22;5084335;28;20073;-26
2023/12/04 06:14:50;;;;;;;9.27;2.78;;;;;;;12.56;41.73;96806.72;5084129;28;20072;-26
2023/12/04 06:17:16;;;;;;;6.93;2.15;;;;;;;12.49;41.94;96809.59;5073910;28;20055;-27
2023/12/04 06:19:41;;;;;;;9.60;2.63;;;;;;;12.69;42.07;96817.66;5080985;28;20059;-27
2023/12/04 06:22:07;;;;;;;7.00;2.40;;;;;;;12.62;41.97;96812.38;5080761;28;20020;-27
2023/12/04 06:24:33;;;;;;;5.18;2.40;;;;;;;12.52;41.93;96804.09;5084314;28;20018;-27
2023/12/04 06:26:59;;;;;;;5.63;2.25;;;;;;;12.65;41.97;96803.38;5084775;28;20104;-26
2023/12/04 06:29:24;;;;;;;5.15;2.70;;;;;;;12.52;41.95;96803.31;5080631;28;20485;-27
2023/12/04 06:31:50;;;;;;;8.07;3.67;;;;;;;12.52;41.85;96809.53;5078136;28;20154;-27
2023/12/04 06:34:16;;;;;;;5.18;2.72;;;;;;;12.68;41.38;96805.22;5083479;28;20040;-27
2023/12/04 06:36:42;;;;;;;11.55;2.90;;;;;;;12.66;41.55;96810.34;5055496;28;20028;-27
2023/12/04 06:39:13;;;;;;;8.00;2.90;;;;;;;12.74;41.10;96792.59;5081026;28;20025;-28
2023/12/04 06:41:40;;;;;;;6.55;2.80;;;;;;;12.73;41.56;96796.56;5087543;28;20033;-27
2023/12/04 06:44:06;;;;;;;6.43;3.20;;;;;;;12.70;41.50;96800.13;5073166;28;20020;-27
2023/12/04 06:46:36;;;;;;;5.82;2.47;;;;;;;12.49;42.18;96804.94;5080564;28;20091;-26
2023/12/04 06:49:05;;;;;;;5.20;2.60;;;;;;;12.59;41.80;96803.91;5080052;28;20093;-27
2023/12/04 06:51:30;;;;;;;7.90;2.75;;;;;;;12.49;41.88;96804.94;5080435;28;20153;-27
2023/12/04 06:53:56;;;;;;;4.93;2.20;;;;;;;12.58;41.72;96807.06;5080561;28;20016;-27
2023/12/04 06:56:21;;;;;;;5.03;2.15;;;;;;;12.55;41.75;96813.34;5080324;28;20069;-27
2023/12/04 06:58:47;;;;;;;8.65;2.45;;;;;;;12.62;41.62;96817.81;5080133;28;20377;-26
2023/12/04 07:01:12;;;;;;;6.85;2.47;;;;;;;12.62;41.96;96820.53;5080165;28;20013;-26
2023/12/04 07:03:38;;;;;;;6.55;2.88;;;;;;;12.60;41.78;96829.16;5079745;28;20024;-27
2023/12/04 07:06:04;;;;;;;6.68;2.83;;;;;;;12.63;42.18;96824.78;5075640;28;20034;-26
2023/12/04 07:08:29;;;;;;;6.20;2.83;;;;;;;12.67;42.04;96828.19;5086047;28;20025;-30
2023/12/04 07:10:54;;;;;;;5.20;3.05;;;;;;;12.66;41.54;96834.81;5079849;28;20020;-27
2023/12/04 07:13:20;;;;;;;7.38;2.58;;;;;;;12.65;41.97;96833.28;5075966;28;20381;-27
2023/12/04 07:15:45;;;;;;;5.35;2.50;;;;;;;12.61;42.16;96830.66;5077356;28;20396;-27
2023/12/04 07:18:11;;;;;;;6.78;3.60;;;;;;;12.47;42.72;96834.56;5087674;28;20020;-27
2023/12/04 07:20:36;;;;;;;5.22;2.83;;;;;;;12.48;42.38;96836.06;5080319;28;20039;-27
2023/12/04 07:23:02;;;;;;;5.47;3.03;;;;;;;12.82;41.68;96827.38;5073489;28;20496;-27
2023/12/04 07:25:27;;;;;;;6.97;2.90;;;;;;;12.75;42.21;96830.28;5080205;28;20031;-26
2023/12/04 07:27:53;;;;;;;5.70;2.83;;;;;;;12.63;42.39;96836.44;5080166;28;20052;-27
2023/12/04 07:30:18;;;;;;;4.60;2.28;;;;;;;12.71;42.48;96834.31;5080171;28;20028;-27
2023/12/04 07:32:44;;;;;;;6.40;2.97;;;;;;;12.80;42.15;96831.72;5072893;28;20021;-26
2023/12/04 07:35:09;;;;;;;5.55;2.45;;;;;;;12.79;42.32;96836.41;5080441;28;20027;-26
2023/12/04 07:37:35;;;;;;;7.60;2.70;;;;;;;12.73;42.62;96831.94;5080470;28;20561;-27
2023/12/04 07:40:00;;;;;;;3.83;2.30;;;;;;;12.69;42.38;96823.84;5079594;28;20020;-27
2023/12/04 07:42:26;;;;;;;6.18;2.58;;;;;;;12.54;42.76;96823.47;5079712;28;20023;-27
2023/12/04 07:44:51;;;;;;;4.18;2.45;;;;;;;12.86;42.24;96828.03;5076064;28;20066;-27
2023/12/04 07:47:17;;;;;;;3.88;2.13;;;;;;;12.72;42.75;96824.97;5084142;28;20043;-26
2023/12/04 07:49:45;;;;;;;4.03;2.10;;;;;;;12.72;42.51;96835.84;5073553;28;20043;-27
2023/12/04 07:52:11;;;;;;;2.25;1.67;;;;;;;12.67;42.73;96834.41;5083523;28;20028;-28
2023/12/04 07:54:37;;;;;;;4.45;1.95;;;;;;;12.77;43.06;96835.31;5074801;28;20028;-26
2023/12/04 07:57:03;;;;;;;4.25;2.40;;;;;;;12.91;42.62;96840.34;5079899;28;20031;-27
2023/12/04 07:59:28;;;;;;;5.00;2.80;;;;;;;12.82;42.79;96842.94;5080078;28;20374;-26
2023/12/04 08:01:54;;;;;;;6.20;2.35;;;;;;;12.82;42.80;96838.28;5080286;28;20028;-29
2023/12/04 08:04:19;;;;;;;4.32;2.25;;;;;;;12.85;43.20;96847.53;5079943;28;20020;-26
2023/12/04 08:06:45;;;;;;;5.47;2.67;;;;;;;13.00;42.31;96858.78;5079646;28;20024;-26
2023/12/04 08:09:10;;;;;;;4.63;3.15;;;;;;;12.88;42.85;96861.03;5079906;28;20021;-27
2023/12/04 08:11:37;;;;;;;4.85;2.35;;;;;;;12.87;42.90;96862.22;5078310;28;20031;-26
2023/12/04 08:14:03;;;;;;;4.95;2.22;;;;;;;12.90;43.07;96872.25;5081785;28;20020;-26
2023/12/04 08:16:29;;;;;;;5.20;2.30;;;;;;;12.90;43.60;96872.25;5086116;28;20121;-26
2023/12/04 08:18:55;;;;;;;4.20;1.90;;;;;;;13.11;43.07;96876.34;5085988;28;20028;-26
2023/12/04 08:21:20;;;;;;;5.43;2.35;;;;;;;13.03;43.15;96872.28;5078673;28;20108;-27
2023/12/04 08:23:46;;;;;;;2.75;1.77;;;;;;;13.15;42.94;96884.44;5081150;28;20107;-26
2023/12/04 08:26:12;;;;;;;4.80;1.73;;;;;;;13.04;42.79;96875.78;5091166;28;20043;-26
2023/12/04 08:28:41;;;;;;;3.83;1.90;;;;;;;13.06;43.18;96879.63;5083090;28;20020;-26
2023/12/04 08:31:08;;;;;;;5.03;1.90;;;;;;;13.18;42.36;96878.16;5090432;28;20024;-28
2023/12/04 08:33:34;;;;;;;4.13;1.85;;;;;;;13.00;43.04;96884.03;5083066;28;20081;-26
2023/12/04 08:36:00;;;;;;;3.03;1.83;;;;;;;13.00;43.17;96878.59;5088448;28;20098;-27
2023/12/04 08:38:25;;;;;;;5.75;1.73;;;;;;;13.04;42.73;96876.56;5084605;28;20409;-26
2023/12/04 08:40:51;;;;;;;3.40;2.05;;;;;;;13.16;42.89;96873.13;5079341;28;20020;-26
2023/12/04 08:43:16;;;;;;;8.20;2.53;;;;;;;13.18;43.08;96880.88;5085965;28;20012;-26
2023/12/04 08:45:42;;;;;;;6.32;2.35;;;;;;;13.06;43.23;96868.72;5082968;28;20037;-26
2023/12/04 08:48:08;;;;;;;6.32;2.63;;;;;;;13.15;43.11;96871.59;5087699;28;20413;-26
2023/12/04 08:50:34;;;;;;;7.22;3.13;;;;;;;13.15;42.84;96876.28;5084503;28;20020;-26
2023/12/04 08:52:59;;;;;;;5.22;2.67;;;;;;;13.16;43.03;96878.56;5083008;28;20027;-26
2023/12/04 08:55:25;;;;;;;8.45;3.05;;;;;;;13.16;43.09;96867.69;5082405;28;20025;-26
2023/12/04 08:57:50;;;;;;;6.45;2.67;;;;;;;13.30;42.98;96874.69;5076370;28;20378;-26
2023/12/04 09:00:16;;;;;;;7.43;2.38;;;;;;;13.21;43.50;96878.06;5085382;28;20027;-26
2023/12/04 09:02:41;;;;;;;6.30;2.65;;;;;;;13.10;43.51;96872.13;5077591;28;20016;-26
2023/12/04 09:05:07;;;;;;;6.57;2.20;;;;;;;13.13;43.79;96873.97;5084555;28;20016;-26
2023/12/04 09:07:36;;;;;;;6.20;2.35;;;;;;;13.15;43.42;96885.22;5079961;28;20343;-26
2023/12/04 09:10:01;;;;;;;4.70;2.88;;;;;;;13.12;43.91;96882.56;5083055;28;20013;-26
2023/12/04 09:12:27;;;;;;;10.15;2.75;;;;;;;13.06;44.20;96879.63;5081647;28;20147;-26
2023/12/04 09:14:52;;;;;;;5.88;2.92;;;;;;;13.09;43.72;96873.31;5081976;28;20017;-25
2023/12/04 09:17:18;;;;;;;9.30;4.22;;;;;;;13.26;43.58;96868.56;5081851;28;20028;-26
2023/12/04 09:19:43;;;;;;;4.40;2.63;;;;;;;13.15;43.39;96860.72;5081828;28;20025;-26
2023/12/04 09:22:09;;;;;;;6.95;2.92;;;;;;;13.17;43.56;96863.75;5082225;28;20433;-26
2023/12/04 09:24:34;;;;;;;8.80;2.90;;;;;;;13.32;43.46;96864.13;5085477;28;20016;-26
2023/12/04 09:26:59;;;;;;;3.92;2.20;;;;;;;13.24;43.98;96874.44;5085325;28;20115;-26
2023/12/04 09:29:25;;;;;;;5.72;2.08;;;;;;;13.29;43.37;96863.03;5084090;28;20021;-26
2023/12/04 09:31:51;;;;;;;5.97;2.67;;;;;;;13.41;43.42;96874.38;5087699;28;20021;-26
2023/12/04 09:34:18;;;;;;;4.53;2.00;;;;;;;13.74;42.83;96867.53;5081662;28;20032;-26
2023/12/04 09:36:43;;;;;;;3.65;2.20;;;;;;;13.18;43.64;96859.84;5088850;28;20104;-26
2023/12/04 09:39:09;;;;;;;7.45;2.38;;;;;;;13.26;43.90;96863.88;5081394;28;20031;-26
2023/12/04 09:41:35;;;;;;;6.07;2.30;;;;;;;13.42;43.26;96854.88;5081753;28;20016;-26
2023/12/04 09:44:01;;;;;;;4.00;1.80;;;;;;;13.27;44.00;96851.78;5086109;28;20028;-26
2023/12/04 09:46:27;;;;;;;7.97;2.50;;;;;;;13.40;43.48;96853.78;5077124;28;20016;-26
2023/12/04 09:48:54;;;;;;;7.13;2.42;;;;;;;13.35;44.02;96851.59;5081674;28;20040;-26
2023/12/04 09:51:22;;;;;;;5.07;2.60;;;;;;;13.33;44.27;96843.88;5087730;28;20012;-26
2023/12/04 09:53:49;;;;;;;4.70;2.70;;;;;;;13.25;44.16;96851.47;5076427;28;20047;-26
2023/12/04 09:56:15;;;;;;;8.70;2.63;;;;;;;13.23;44.07;96845.69;5085174;28;20016;-26
2023/12/04 09:58:42;;;;;;;5.82;2.30;;;;;;;13.26;44.09;96839.38;5076408;28;20034;-26
2023/12/04 10:01:08;;;;;;;8.60;2.60;;;;;;;13.33;44.19;96834.94;5081226;28;20051;-26
2023/12/04 10:03:35;;;;;;;6.55;2.35;;;;;;;13.26;44.25;96822.25;5080515;28;20426;-26
2023/12/04 10:06:01;;;;;;;7.85;2.40;;;;;;;13.29;44.12;96827.63;5081705;28;20035;-26
2023/12/04 10:08:27;;;;;;;4.75;2.38;;;;;;;13.33;44.41;96821.31;5073587;28;20028;-26
2023/12/04 10:10:52;;;;;;;8.18;3.25;;;;;;;13.35;44.46;96816.97;5063101;28;20032;-26
2023/12/04 10:13:18;;;;;;;8.25;2.90;;;;;;;13.35;44.35;96814.22;5076814;28;20048;-26
2023/12/04 10:15:48;;;;;;;12.10;3.63;;;;;;;13.35;44.83;96808.78;5084837;28;20027;-26
2023/12/04 10:18:29;;;;;;;6.35;3.03;;;;;;;13.34;44.94;96812.69;5075868;28;20362;-26
2023/12/04 10:20:55;;;;;;;9.90;3.25;;;;;;;13.42;44.69;96805.06;5077239;28;20390;-26
2023/12/04 10:23:20;;;;;;;8.07;3.45;;;;;;;13.24;44.76;96808.31;5082474;28;20033;-26
2023/12/04 10:25:49;;;;;;;8.18;3.28;;;;;;;13.31;44.32;96799.94;5078878;28;20039;-26
2023/12/04 10:28:15;;;;;;;8.40;3.40;;;;;;;13.29;44.65;96805.06;5081190;28;20381;-26
2023/12/04 10:30:41;;;;;;;9.70;3.35;;;;;;;13.35;44.99;96799.84;5081094;28;20024;-26
2023/12/04 10:33:07;;;;;;;9.32;3.40;;;;;;;13.32;44.61;96798.75;5087823;28;20112;-26
2023/12/04 10:35:38;;;;;;;10.80;3.72;;;;;;;13.28;44.99;96793.41;5082651;28;20061;-26
2023/12/04 10:38:05;;;;;;;10.55;3.83;;;;;;;13.36;44.72;96785.00;5083229;28;20020;-26
2023/12/04 10:40:32;;;;;;;8.20;3.20;;;;;;;13.33;45.23;96775.75;5082900;28;20023;-26
2023/12/04 10:43:16;;;;;;;8.20;3.00;;;;;;;13.44;44.55;96778.16;5079485;28;20107;-26
2023/12/04 10:45:45;;;;;;;9.68;4.85;;;;;;;13.38;44.86;96777.16;5080819;28;20020;-26
2023/12/04 10:48:11;;;;;;;9.27;4.55;;;;;;;13.36;45.16;96771.38;5078831;28;20512;-26
2023/12/04 10:50:42;;;;;;;9.90;3.72;;;;;;;13.37;45.06;96764.75;5082164;28;20078;-26
2023/12/04 10:53:09;;;;;;;7.30;3.60;;;;;;;13.40;44.99;96752.97;5084882;28;20027;-26
2023/12/04 10:55:35;;;;;;;9.05;3.58;;;;;;;13.35;45.22;96761.72;5082756;28;20019;-26
2023/12/04 10:58:05;;;;;;;7.38;4.03;;;;;;;13.33;45.36;96758.66;5082932;28;20020;-26
2023/12/04 11:00:48;;;;;;;13.52;4.35;;;;;;;13.38;45.31;96745.25;5077590;28;20104;-26
2023/12/04 11:03:20;;;;;;;8.23;3.47;;;;;;;13.35;45.40;96732.50;5073529;28;20031;-26
2023/12/04 11:05:53;;;;;;;12.77;7.75;;;;;;;13.53;45.45;96710.91;5062448;28;20111;-26
2023/12/04 11:08:19;;;;;;;9.85;5.57;;;;;;;13.57;45.27;96705.34;5076348;28;20031;-26
2023/12/04 11:11:03;;;;;;;10.27;5.57;;;;;;;13.41;45.50;96694.56;5076473;28;20025;-26
2023/12/04 11:13:31;;;;;;;10.20;5.30;;;;;;;13.51;45.28;96690.72;5080464;28;20035;-26
2023/12/04 11:16:20;;;;;;;9.13;4.68;;;;;;;13.60;45.30;96691.56;5080490;28;20020;-26
2023/12/04 11:18:51;;;;;;;9.70;4.95;;;;;;;13.64;45.40;96694.19;5078351;28;20051;-26
2023/12/04 11:21:20;;;;;;;12.45;4.55;;;;;;;13.51;45.59;96682.56;5075315;28;20025;-26
2023/12/04 11:23:47;;;;;;;10.23;6.47;;;;;;;13.35;46.24;96682.72;5083213;28;20028;-26
2023/12/04 11:26:15;;;;;;;11.15;7.60;;;;;;;13.49;46.36;96687.69;5074515;28;20027;-26
2023/12/04 11:28:43;;;;;;;8.52;5.95;;;;;;;13.56;46.12;96688.22;5080145;28;20516;-26